createdAt,value
2018-05-29T00:00:13.165Z,3.90
2018-05-29T00:02:42.023Z,3.87
2018-05-29T00:05:10.920Z,3.60
2018-05-29T00:07:39.772Z,3.53
2018-05-29T00:10:08.645Z,4.00
2018-05-29T00:12:37.521Z,3.37
2018-05-29T00:15:06.379Z,3.53
2018-05-29T00:17:35.233Z,4.13
2018-05-29T00:20:04.294Z,4.13
2018-05-29T00:22:33.188Z,3.97
2018-05-29T00:25:02.051Z,3.50
2018-05-29T00:27:30.949Z,4.03
2018-05-29T00:29:59.848Z,3.77
2018-05-29T00:32:28.724Z,4.30
2018-05-29T00:34:57.596Z,4.10
2018-05-29T00:37:26.444Z,3.83
2018-05-29T00:39:55.340Z,3.87
2018-05-29T00:42:24.257Z,4.27
2018-05-29T00:44:53.141Z,3.97
2018-05-29T00:47:22.037Z,3.73
2018-05-29T00:49:50.924Z,4.03
2018-05-29T00:52:19.817Z,4.30
2018-05-29T00:55:03.695Z,3.97
2018-05-29T00:57:32.688Z,4.47
2018-05-29T01:00:01.545Z,4.27
2018-05-29T01:02:30.441Z,4.00
2018-05-29T01:04:59.316Z,3.70
2018-05-29T01:07:28.357Z,4.10
2018-05-29T01:09:57.237Z,4.10
2018-05-29T01:12:26.093Z,4.50
2018-05-29T01:14:54.954Z,4.27
2018-05-29T01:17:23.853Z,4.30
2018-05-29T01:19:52.758Z,3.77
2018-05-29T01:22:21.634Z,4.10
2018-05-29T01:24:50.533Z,4.27
2018-05-29T01:27:19.438Z,4.17
2018-05-29T01:29:48.312Z,4.23
2018-05-29T01:32:17.374Z,4.63
2018-05-29T01:34:46.257Z,4.00
2018-05-29T01:37:15.461Z,4.30
2018-05-29T01:39:44.364Z,4.30
2018-05-29T01:42:13.276Z,3.97
2018-05-29T01:44:42.149Z,4.43
2018-05-29T01:47:11.038Z,4.17
2018-05-29T01:49:39.912Z,4.50
2018-05-29T01:52:08.784Z,4.53
2018-05-29T01:54:37.669Z,4.77
2018-05-29T01:57:06.700Z,3.90
2018-05-29T01:59:35.580Z,4.20
2018-05-29T02:02:04.429Z,4.27
2018-05-29T02:04:33.375Z,4.10
2018-05-29T02:07:02.247Z,4.43
2018-05-29T02:09:31.125Z,4.60
2018-05-29T02:12:00.036Z,3.77
2018-05-29T02:14:28.892Z,4.27
2018-05-29T02:16:57.773Z,4.33
2018-05-29T02:19:26.737Z,4.00
2018-05-29T02:21:55.617Z,3.80
2018-05-29T02:24:24.526Z,4.20
2018-05-29T02:26:53.436Z,4.27
2018-05-29T02:29:22.336Z,3.77
2018-05-29T02:31:51.217Z,4.47
2018-05-29T02:34:20.128Z,4.10
2018-05-29T02:36:49.001Z,4.37
2018-05-29T02:39:17.882Z,4.20
2018-05-29T02:41:46.858Z,4.70
2018-05-29T02:44:16.050Z,4.27
2018-05-29T02:46:45.043Z,4.40
2018-05-29T02:49:13.917Z,4.37
2018-05-29T02:51:42.772Z,4.40
2018-05-29T02:54:11.653Z,4.10
2018-05-29T02:56:40.568Z,4.80
2018-05-29T02:59:09.604Z,4.43
2018-05-29T03:01:38.488Z,3.93
2018-05-29T03:04:07.360Z,4.03
2018-05-29T03:06:36.263Z,4.07
2018-05-29T03:09:05.920Z,3.97
2018-05-29T03:11:34.805Z,4.00
2018-05-29T03:14:03.659Z,3.70
2018-05-29T03:16:32.536Z,4.57
2018-05-29T03:19:01.445Z,4.27
2018-05-29T03:21:30.303Z,4.60
2018-05-29T03:23:59.174Z,3.90
2018-05-29T03:26:28.656Z,4.00
2018-05-29T03:28:57.565Z,4.97
2018-05-29T03:31:26.445Z,4.23
2018-05-29T03:33:55.356Z,4.30
2018-05-29T03:36:24.250Z,4.17
2018-05-29T03:38:53.144Z,4.50
2018-05-29T03:41:22.253Z,4.10
2018-05-29T03:43:51.131Z,4.33
2018-05-29T03:46:20.021Z,4.60
2018-05-29T03:48:48.930Z,4.30
2018-05-29T03:51:17.818Z,4.33
2018-05-29T03:53:46.685Z,4.30
2018-05-29T03:56:15.587Z,4.20
2018-05-29T03:58:44.483Z,3.80
2018-05-29T04:01:13.884Z,4.00
2018-05-29T04:03:42.761Z,4.30
2018-05-29T04:06:11.648Z,4.33
2018-05-29T04:08:40.596Z,4.70
2018-05-29T04:11:09.452Z,3.93
2018-05-29T04:13:38.341Z,4.63
2018-05-29T04:16:07.245Z,4.17
2018-05-29T04:18:36.104Z,4.10
2018-05-29T04:21:04.992Z,4.50
2018-05-29T04:23:33.912Z,3.90
2018-05-29T04:26:02.772Z,4.17
2018-05-29T04:28:31.668Z,4.40
2018-05-29T04:31:00.658Z,4.30
2018-05-29T04:33:29.541Z,4.00
2018-05-29T04:35:58.420Z,4.53
2018-05-29T04:38:27.618Z,3.90
2018-05-29T04:40:56.465Z,4.10
2018-05-29T04:43:25.316Z,4.07
2018-05-29T04:45:54.213Z,4.27
2018-05-29T04:48:23.074Z,4.43
2018-05-29T04:50:51.973Z,4.43
2018-05-29T04:53:20.929Z,4.10
2018-05-29T04:55:49.852Z,4.20
2018-05-29T04:58:18.752Z,3.97
2018-05-29T05:00:47.653Z,4.60
2018-05-29T05:03:16.581Z,3.60
2018-05-29T05:05:45.501Z,4.33
2018-05-29T05:08:14.414Z,4.13
2018-05-29T05:10:43.265Z,4.10
2018-05-29T05:13:12.120Z,4.20
2018-05-29T05:15:41.018Z,4.17
2018-05-29T05:18:09.880Z,4.10
2018-05-29T05:20:38.734Z,4.30
2018-05-29T05:23:07.674Z,3.90
2018-05-29T05:25:36.585Z,4.20
2018-05-29T05:28:05.468Z,4.73
2018-05-29T05:30:34.371Z,4.20
2018-05-29T05:33:03.330Z,4.50
2018-05-29T05:35:32.183Z,3.93
2018-05-29T05:38:01.077Z,3.83
2018-05-29T05:40:29.943Z,3.93
2018-05-29T05:42:58.998Z,3.83
2018-05-29T05:45:27.869Z,4.20
2018-05-29T05:47:56.722Z,3.90
2018-05-29T05:50:25.636Z,4.10
2018-05-29T05:52:54.525Z,4.00
2018-05-29T05:55:23.425Z,4.50
2018-05-29T05:57:52.324Z,4.57
2018-05-29T06:00:21.180Z,4.50
2018-05-29T06:02:50.089Z,4.13
2018-05-29T06:05:19.096Z,4.07
2018-05-29T06:07:47.977Z,4.60
2018-05-29T06:10:16.832Z,4.53
2018-05-29T06:12:45.725Z,4.50
2018-05-29T06:15:14.694Z,4.10
2018-05-29T06:17:43.683Z,4.33
2018-05-29T06:20:12.564Z,4.00
2018-05-29T06:22:41.501Z,4.80
2018-05-29T06:25:10.401Z,4.50
2018-05-29T06:27:39.304Z,4.47
2018-05-29T06:30:08.348Z,4.30
2018-05-29T06:32:37.345Z,4.63
2018-05-29T06:35:06.241Z,4.70
2018-05-29T06:37:35.132Z,4.50
2018-05-29T06:40:04.028Z,4.13
2018-05-29T06:42:32.939Z,4.30
2018-05-29T06:45:02.025Z,4.80
2018-05-29T06:47:30.918Z,4.53
2018-05-29T06:49:59.841Z,4.40
2018-05-29T06:52:28.697Z,4.30
2018-05-29T06:54:57.685Z,5.10
2018-05-29T06:57:26.585Z,4.40
2018-05-29T06:59:55.465Z,4.50
2018-05-29T07:02:24.388Z,4.77
2018-05-29T07:04:53.289Z,5.73
2018-05-29T07:07:22.169Z,5.67
2018-05-29T07:09:51.102Z,6.30
2018-05-29T07:12:20.025Z,6.57
2018-05-29T07:14:49.013Z,6.07
2018-05-29T07:17:17.885Z,5.20
2018-05-29T07:19:46.784Z,5.60
2018-05-29T07:22:15.632Z,4.67
2018-05-29T07:24:44.569Z,5.10
2018-05-29T07:27:13.471Z,4.97
2018-05-29T07:29:42.331Z,4.83
2018-05-29T07:32:11.212Z,5.30
2018-05-29T07:34:40.113Z,5.47
2018-05-29T07:37:08.960Z,4.97
2018-05-29T07:39:37.839Z,4.30
2018-05-29T07:42:06.736Z,4.70
2018-05-29T07:44:35.595Z,4.70
2018-05-29T07:47:04.461Z,4.70
2018-05-29T07:49:33.390Z,5.13
2018-05-29T07:52:02.436Z,4.73
2018-05-29T07:54:31.297Z,5.13
2018-05-29T07:57:00.199Z,4.23
2018-05-29T07:59:29.116Z,4.47
2018-05-29T08:01:58.003Z,4.77
2018-05-29T08:04:26.884Z,4.50
2018-05-29T08:06:55.733Z,4.43
2018-05-29T08:09:24.584Z,4.67
2018-05-29T08:11:53.497Z,4.90
2018-05-29T08:14:22.385Z,4.20
2018-05-29T08:16:51.261Z,4.50
2018-05-29T08:19:20.156Z,4.30
2018-05-29T08:21:49.037Z,4.37
2018-05-29T08:24:17.941Z,4.70
2018-05-29T08:26:46.873Z,4.77
2018-05-29T08:29:15.732Z,4.30
2018-05-29T08:31:44.605Z,4.40
2018-05-29T08:34:13.569Z,4.80
2018-05-29T08:36:42.424Z,4.10
2018-05-29T08:39:11.273Z,4.50
2018-05-29T08:41:40.141Z,4.50
2018-05-29T08:44:09.014Z,4.43
2018-05-29T08:46:37.892Z,4.33
2018-05-29T08:49:07.095Z,4.70
2018-05-29T08:51:35.965Z,4.30
2018-05-29T08:54:04.817Z,4.40
2018-05-29T08:56:33.680Z,4.50
2018-05-29T08:59:02.544Z,4.27
2018-05-29T09:01:31.422Z,4.80
2018-05-29T09:04:00.343Z,4.43
2018-05-29T09:06:29.220Z,4.67
2018-05-29T09:08:58.111Z,5.00
2018-05-29T09:11:26.985Z,4.30
2018-05-29T09:13:55.836Z,4.47
2018-05-29T09:16:24.790Z,4.30
2018-05-29T09:18:53.729Z,4.60
2018-05-29T09:21:22.611Z,4.40
2018-05-29T09:23:51.508Z,4.90
2018-05-29T09:26:20.397Z,4.10
2018-05-29T09:28:49.276Z,3.97
2018-05-29T09:31:18.128Z,4.07
2018-05-29T09:33:47.002Z,4.03
2018-05-29T09:36:15.855Z,4.20
2018-05-29T09:38:44.730Z,4.30
2018-05-29T09:41:13.809Z,4.67
2018-05-29T09:43:42.653Z,4.67
2018-05-29T09:46:11.529Z,4.17
2018-05-29T09:48:40.417Z,4.20
2018-05-29T09:51:09.296Z,4.00
2018-05-29T09:53:38.168Z,4.20
2018-05-29T09:56:07.063Z,4.60
2018-05-29T09:58:35.949Z,4.43
2018-05-29T10:01:04.903Z,5.00
2018-05-29T10:03:33.732Z,4.33
2018-05-29T10:06:02.581Z,4.80
2018-05-29T10:08:31.513Z,4.20
2018-05-29T10:11:00.419Z,4.13
2018-05-29T10:13:29.296Z,4.27
2018-05-29T10:15:58.149Z,4.13
2018-05-29T10:18:27.028Z,4.40
2018-05-29T10:20:55.896Z,3.90
2018-05-29T10:23:24.828Z,4.70
2018-05-29T10:25:53.660Z,3.87
2018-05-29T10:28:22.547Z,4.30
2018-05-29T10:30:51.462Z,4.20
2018-05-29T10:33:20.361Z,4.20
2018-05-29T10:35:49.245Z,4.30
2018-05-29T10:38:18.124Z,4.40
2018-05-29T10:40:47.076Z,4.53
2018-05-29T10:43:15.933Z,4.50
2018-05-29T10:45:44.881Z,4.27
2018-05-29T10:48:13.759Z,4.03
2018-05-29T10:50:42.608Z,4.17
2018-05-29T10:53:11.497Z,4.23
2018-05-29T10:55:40.465Z,4.77
2018-05-29T10:58:09.556Z,4.60
2018-05-29T11:00:38.538Z,4.70
2018-05-29T11:03:07.419Z,4.27
2018-05-29T11:05:36.276Z,4.93
2018-05-29T11:08:05.144Z,5.00
2018-05-29T11:10:34.029Z,4.43
2018-05-29T11:13:02.881Z,4.70
2018-05-29T11:15:31.768Z,4.70
2018-05-29T11:18:00.742Z,4.70
2018-05-29T11:20:29.633Z,4.87
2018-05-29T11:22:58.517Z,4.60
2018-05-29T11:25:27.421Z,5.10
2018-05-29T11:27:56.303Z,4.83
2018-05-29T11:30:25.160Z,4.80
2018-05-29T11:32:54.033Z,5.20
2018-05-29T11:35:22.919Z,5.00
2018-05-29T11:37:51.812Z,4.33
2018-05-29T11:40:20.696Z,5.40
2018-05-29T11:42:49.549Z,5.10
2018-05-29T11:45:18.424Z,4.90
2018-05-29T11:47:47.306Z,4.87
2018-05-29T11:50:16.160Z,4.97
2018-05-29T11:52:45.017Z,5.00
2018-05-29T11:55:13.934Z,4.87
2018-05-29T11:57:42.809Z,4.83
2018-05-29T12:00:11.702Z,5.47
2018-05-29T12:02:40.626Z,5.07
2018-05-29T12:05:09.614Z,4.87
2018-05-29T12:07:38.519Z,5.07
2018-05-29T12:10:07.365Z,5.00
2018-05-29T12:12:36.256Z,5.37
2018-05-29T12:15:05.145Z,5.13
2018-05-29T12:17:34.075Z,5.50
2018-05-29T12:20:02.929Z,5.30
2018-05-29T12:22:31.810Z,5.60
2018-05-29T12:25:00.681Z,5.83
2018-05-29T12:27:29.560Z,5.73
2018-05-29T12:29:58.452Z,5.60
2018-05-29T12:32:27.368Z,5.67
2018-05-29T12:34:56.311Z,6.03
2018-05-29T12:37:25.193Z,6.30
2018-05-29T12:39:54.100Z,5.63
2018-05-29T12:42:22.996Z,6.40
2018-05-29T12:44:51.849Z,6.17
2018-05-29T12:47:20.752Z,6.03
2018-05-29T12:49:49.629Z,5.93
2018-05-29T12:52:18.509Z,5.60
2018-05-29T12:54:47.420Z,5.40
2018-05-29T12:57:16.310Z,6.00
2018-05-29T12:59:45.201Z,6.30
2018-05-29T13:02:14.134Z,6.20
2018-05-29T13:04:43.018Z,5.90
2018-05-29T13:07:12.006Z,6.73
2018-05-29T13:09:40.885Z,6.10
2018-05-29T13:12:09.991Z,6.70
2018-05-29T13:14:38.869Z,6.40
2018-05-29T13:17:07.772Z,6.27
2018-05-29T13:19:36.646Z,6.53
2018-05-29T13:22:05.529Z,7.00
2018-05-29T13:24:34.404Z,6.60
2018-05-29T13:27:03.312Z,5.87
2018-05-29T13:29:32.202Z,7.13
2018-05-29T13:32:01.123Z,7.00
2018-05-29T13:34:30.014Z,6.67
2018-05-29T13:36:58.898Z,7.00
2018-05-29T13:39:27.772Z,6.70
2018-05-29T13:41:56.640Z,7.37
2018-05-29T13:44:25.504Z,6.70
2018-05-29T13:46:54.381Z,6.70
2018-05-29T13:49:23.263Z,6.57
2018-05-29T13:51:52.117Z,6.73
2018-05-29T13:54:21.014Z,6.70
2018-05-29T13:56:49.954Z,7.13
2018-05-29T13:59:19.036Z,6.30
2018-05-29T14:01:48.133Z,6.87
2018-05-29T14:04:17.008Z,7.70
2018-05-29T14:06:45.893Z,7.40
2018-05-29T14:09:14.961Z,7.97
2018-05-29T14:11:43.848Z,7.73
2018-05-29T14:14:12.744Z,8.00
2018-05-29T14:16:41.629Z,7.27
2018-05-29T14:19:10.506Z,7.53
2018-05-29T14:21:39.390Z,7.60
2018-05-29T14:24:08.300Z,7.07
2018-05-29T14:26:37.335Z,8.00
2018-05-29T14:29:06.291Z,7.63
2018-05-29T14:31:35.306Z,8.53
2018-05-29T14:34:04.342Z,9.53
2018-05-29T14:36:33.335Z,8.23
2018-05-29T14:39:02.216Z,8.73
2018-05-29T14:41:31.077Z,8.73
2018-05-29T14:43:59.976Z,8.40
2018-05-29T14:46:28.852Z,8.07
2018-05-29T14:48:57.734Z,7.60
2018-05-29T14:51:26.627Z,7.53
2018-05-29T14:53:55.791Z,7.70
2018-05-29T14:56:24.658Z,7.33
2018-05-29T14:58:53.529Z,7.50
2018-05-29T15:01:22.657Z,7.43
2018-05-29T15:03:51.525Z,7.43
2018-05-29T15:06:20.400Z,7.53
2018-05-29T15:08:49.253Z,7.37
2018-05-29T15:11:18.152Z,7.30
2018-05-29T15:13:47.028Z,6.83
2018-05-29T15:16:16.000Z,7.33
2018-05-29T15:18:44.865Z,7.10
2018-05-29T15:21:13.757Z,7.60
2018-05-29T15:23:42.644Z,7.30
2018-05-29T15:26:11.550Z,7.03
2018-05-29T15:28:40.436Z,7.60
2018-05-29T15:31:09.355Z,7.97
2018-05-29T15:33:38.214Z,7.40
2018-05-29T15:36:07.107Z,7.60
2018-05-29T15:38:36.021Z,7.17
2018-05-29T15:41:04.929Z,7.03
2018-05-29T15:43:33.803Z,7.50
2018-05-29T15:46:03.002Z,7.23
2018-05-29T15:48:31.860Z,7.20
2018-05-29T15:51:00.713Z,7.73
2018-05-29T15:53:29.614Z,7.60
2018-05-29T15:55:58.522Z,8.77
2018-05-29T15:58:27.454Z,8.10
2018-05-29T16:00:56.366Z,8.90
2018-05-29T16:03:25.225Z,8.50
2018-05-29T16:05:54.340Z,9.50
2018-05-29T16:08:23.341Z,8.30
2018-05-29T16:10:52.269Z,8.53
2018-05-29T16:13:21.184Z,8.80
2018-05-29T16:15:50.189Z,8.37
2018-05-29T16:18:19.144Z,8.10
2018-05-29T16:20:48.061Z,7.87
2018-05-29T16:23:16.990Z,7.47
2018-05-29T16:25:45.983Z,7.77
2018-05-29T16:28:14.917Z,7.73
2018-05-29T16:30:43.795Z,7.60
2018-05-29T16:33:12.669Z,7.57
2018-05-29T16:35:41.605Z,7.37
2018-05-29T16:38:10.500Z,7.47
2018-05-29T16:40:39.458Z,7.30
2018-05-29T16:43:08.360Z,7.07
2018-05-29T16:45:37.253Z,7.53
2018-05-29T16:48:06.163Z,6.93
2018-05-29T16:50:35.117Z,6.73
2018-05-29T16:53:04.158Z,6.57
2018-05-29T16:55:33.200Z,7.53
2018-05-29T16:58:02.217Z,6.70
2018-05-29T17:00:31.071Z,6.90
2018-05-29T17:02:59.957Z,6.50
2018-05-29T17:05:29.041Z,6.70
2018-05-29T17:07:57.936Z,7.10
2018-05-29T17:10:26.821Z,6.20
2018-05-29T17:12:55.704Z,6.33
2018-05-29T17:15:24.630Z,6.37
2018-05-29T17:17:53.424Z,6.17
2018-05-29T17:20:22.318Z,6.30
2018-05-29T17:22:51.223Z,6.00
2018-05-29T17:25:20.276Z,6.13
2018-05-29T17:27:49.182Z,5.80
2018-05-29T17:30:18.097Z,6.13
2018-05-29T17:32:46.973Z,6.17
2018-05-29T17:35:15.857Z,5.87
2018-05-29T17:37:44.755Z,6.23
2018-05-29T17:40:13.651Z,5.30
2018-05-29T17:42:42.644Z,5.03
2018-05-29T17:45:11.534Z,5.87
2018-05-29T17:47:40.427Z,6.00
2018-05-29T17:50:09.325Z,6.03
2018-05-29T17:52:38.204Z,6.07
2018-05-29T17:55:07.085Z,5.80
2018-05-29T17:57:36.125Z,5.80
2018-05-29T18:00:05.926Z,5.80
2018-05-29T18:02:34.795Z,5.80
2018-05-29T18:05:03.674Z,6.00
2018-05-29T18:07:32.549Z,6.20
2018-05-29T18:10:01.447Z,6.33
2018-05-29T18:12:30.351Z,5.87
2018-05-29T18:14:59.370Z,5.67
2018-05-29T18:17:28.258Z,5.37
2018-05-29T18:19:57.166Z,5.47
2018-05-29T18:22:26.048Z,5.40
2018-05-29T18:24:54.938Z,4.97
2018-05-29T18:27:23.828Z,6.10
2018-05-29T18:29:52.688Z,5.50
2018-05-29T18:32:21.545Z,5.30
2018-05-29T18:34:50.426Z,5.23
2018-05-29T18:37:19.280Z,5.17
2018-05-29T18:39:48.139Z,5.33
2018-05-29T18:42:17.041Z,5.23
2018-05-29T18:44:45.896Z,5.13
2018-05-29T18:47:14.751Z,5.27
2018-05-29T18:49:43.593Z,5.47
2018-05-29T18:52:12.445Z,5.27
2018-05-29T18:54:41.360Z,5.10
2018-05-29T18:57:10.312Z,5.60
2018-05-29T18:59:39.195Z,5.30
2018-05-29T19:02:08.069Z,5.13
2018-05-29T19:04:36.926Z,5.20
2018-05-29T19:07:05.838Z,5.17
2018-05-29T19:09:34.720Z,5.30
2018-05-29T19:12:03.584Z,5.43
2018-05-29T19:14:32.437Z,5.93
2018-05-29T19:17:01.444Z,5.33
2018-05-29T19:19:30.271Z,5.70
2018-05-29T19:21:59.336Z,5.13
2018-05-29T19:24:28.320Z,5.43
2018-05-29T19:26:57.173Z,5.33
2018-05-29T19:29:26.044Z,5.60
2018-05-29T19:31:54.921Z,5.43
2018-05-29T19:34:23.795Z,5.67
2018-05-29T19:36:52.674Z,5.17
2018-05-29T19:39:21.560Z,5.43
2018-05-29T19:41:50.446Z,5.60
2018-05-29T19:44:19.301Z,5.70
2018-05-29T19:46:48.229Z,5.67
2018-05-29T19:49:17.298Z,5.57
2018-05-29T19:51:46.199Z,4.90
2018-05-29T19:54:15.077Z,6.03
2018-05-29T19:56:43.952Z,5.63
2018-05-29T19:59:12.841Z,5.40
2018-05-29T20:01:41.705Z,5.33
2018-05-29T20:04:10.702Z,5.53
2018-05-29T20:06:39.758Z,5.90
2018-05-29T20:09:08.749Z,5.07
2018-05-29T20:11:37.645Z,5.27
2018-05-29T20:14:06.520Z,4.97
2018-05-29T20:16:35.424Z,5.03
2018-05-29T20:19:04.291Z,4.87
2018-05-29T20:21:33.170Z,5.30
2018-05-29T20:24:02.120Z,5.13
2018-05-29T20:26:31.080Z,5.93
2018-05-29T20:28:59.952Z,5.10
2018-05-29T20:31:28.858Z,4.97
2018-05-29T20:33:57.805Z,5.60
2018-05-29T20:36:26.701Z,5.30
2018-05-29T20:38:55.591Z,5.33
2018-05-29T20:41:24.470Z,5.70
2018-05-29T20:43:53.699Z,5.67
2018-05-29T20:46:22.551Z,5.60
2018-05-29T20:48:51.416Z,4.93
2018-05-29T20:51:20.295Z,5.20
2018-05-29T20:53:49.334Z,5.10
2018-05-29T20:56:18.209Z,5.27
2018-05-29T20:58:47.181Z,4.93
2018-05-29T21:01:16.033Z,5.37
2018-05-29T21:03:44.933Z,5.20
2018-05-29T21:06:13.805Z,5.47
2018-05-29T21:08:42.693Z,5.53
2018-05-29T21:11:11.541Z,5.70
2018-05-29T21:13:40.432Z,5.90
2018-05-29T21:16:10.280Z,5.83
2018-05-29T21:18:39.229Z,5.57
2018-05-29T21:21:08.089Z,5.60
2018-05-29T21:23:36.949Z,5.87
2018-05-29T21:26:05.856Z,6.10
2018-05-29T21:28:34.713Z,5.53
2018-05-29T21:31:03.594Z,5.63
2018-05-29T21:33:32.496Z,5.50
2018-05-29T21:36:01.365Z,6.10
2018-05-29T21:38:30.459Z,6.00
2018-05-29T21:40:59.309Z,6.03
2018-05-29T21:43:28.163Z,6.50
2018-05-29T21:45:57.283Z,6.23
2018-05-29T21:48:26.177Z,6.67
2018-05-29T21:50:55.283Z,6.37
2018-05-29T21:53:24.140Z,6.80
2018-05-29T21:55:53.062Z,6.50
2018-05-29T21:58:22.081Z,6.60
2018-05-29T22:00:50.965Z,6.37
2018-05-29T22:03:19.816Z,6.30
2018-05-29T22:05:48.761Z,6.70
2018-05-29T22:08:17.646Z,6.77
2018-05-29T22:10:46.520Z,6.53
2018-05-29T22:13:15.459Z,6.70
2018-05-29T22:15:44.393Z,6.50
2018-05-29T22:18:13.493Z,6.60
2018-05-29T22:20:42.394Z,6.30
2018-05-29T22:23:11.289Z,6.50
2018-05-29T22:25:40.178Z,6.67
2018-05-29T22:28:09.086Z,6.20
2018-05-29T22:30:38.158Z,7.10
2018-05-29T22:33:07.025Z,6.70
2018-05-29T22:35:35.927Z,6.57
2018-05-29T22:38:04.810Z,6.70
2018-05-29T22:40:33.664Z,7.43
2018-05-29T22:43:02.535Z,6.87
2018-05-29T22:45:31.409Z,7.07
2018-05-29T22:48:00.427Z,6.63
2018-05-29T22:50:29.311Z,6.73
2018-05-29T22:52:58.165Z,6.90
2018-05-29T22:55:27.015Z,7.30
2018-05-29T22:57:56.163Z,7.57
2018-05-29T23:00:25.155Z,7.33
2018-05-29T23:02:54.076Z,6.73
2018-05-29T23:05:23.145Z,7.00
2018-05-29T23:07:52.139Z,7.10
2018-05-29T23:10:21.013Z,7.10
2018-05-29T23:12:49.898Z,7.13
2018-05-29T23:15:18.875Z,7.20
2018-05-29T23:17:47.749Z,6.87
2018-05-29T23:20:16.799Z,7.27
2018-05-29T23:22:45.793Z,7.33
2018-05-29T23:25:14.665Z,7.13
2018-05-29T23:27:43.713Z,7.17
2018-05-29T23:30:12.597Z,7.23
2018-05-29T23:32:41.455Z,7.43
2018-05-29T23:35:10.364Z,7.60
2018-05-29T23:37:39.243Z,7.77
2018-05-29T23:40:08.105Z,7.40
2018-05-29T23:42:36.956Z,7.93
2018-05-29T23:45:06.123Z,7.73
2018-05-29T23:47:35.033Z,8.10
2018-05-29T23:50:03.906Z,8.33
2018-05-29T23:52:32.782Z,7.97
2018-05-29T23:55:01.821Z,8.13
2018-05-29T23:57:30.701Z,7.73
2018-05-29T23:59:59.579Z,8.13
